sensor_id;sensor_type;location;lat;lon;timestamp;pressure;altitude;pressure_sealevel;temperature;humidity
9740;BME280;4909;42.680;26.324;2023-06-26T00:00:45;98083.00;;;23.14;100.00
9740;BME280;4909;42.680;26.324;2023-06-26T00:03:13;98076.41;;;23.09;100.00
9740;BME280;4909;42.680;26.324;2023-06-26T00:05:40;98075.81;;;22.97;100.00
9740;BME280;4909;42.680;26.324;2023-06-26T00:08:07;98057.34;;;22.92;100.00
9740;BME280;4909;42.680;26.324;2023-06-26T00:10:34;98069.34;;;23.16;100.00
9740;BME280;4909;42.680;26.324;2023-06-26T00:13:03;98060.25;;;23.25;100.00
9740;BME280;4909;42.680;26.324;2023-06-26T00:15:29;98072.91;;;23.50;100.00
9740;BME280;4909;42.680;26.324;2023-06-26T00:17:57;98066.88;;;23.64;99.95
9740;BME280;4909;42.680;26.324;2023-06-26T00:20:24;98076.22;;;23.36;100.00
9740;BME280;4909;42.680;26.324;2023-06-26T00:22:51;98069.78;;;23.37;100.00
9740;BME280;4909;42.680;26.324;2023-06-26T00:25:19;98058.22;;;23.53;100.00
9740;BME280;4909;42.680;26.324;2023-06-26T00:27:46;98060.94;;;23.61;100.00
9740;BME280;4909;42.680;26.324;2023-06-26T00:30:14;98063.00;;;23.67;99.75
9740;BME280;4909;42.680;26.324;2023-06-26T00:32:41;98064.03;;;23.82;99.23
9740;BME280;4909;42.680;26.324;2023-06-26T00:35:08;98065.50;;;24.10;97.35
9740;BME280;4909;42.680;26.324;2023-06-26T00:37:34;98058.34;;;24.01;97.22
9740;BME280;4909;42.680;26.324;2023-06-26T00:40:01;98058.88;;;24.05;97.42
9740;BME280;4909;42.680;26.324;2023-06-26T00:42:28;98057.69;;;24.07;97.19
9740;BME280;4909;42.680;26.324;2023-06-26T00:44:55;98043.09;;;24.08;96.78
9740;BME280;4909;42.680;26.324;2023-06-26T00:47:23;98046.91;;;24.23;96.62
9740;BME280;4909;42.680;26.324;2023-06-26T00:49:51;98040.47;;;24.33;95.98
9740;BME280;4909;42.680;26.324;2023-06-26T00:52:18;98031.63;;;24.47;94.57
9740;BME280;4909;42.680;26.324;2023-06-26T00:54:45;98037.25;;;24.53;93.92
9740;BME280;4909;42.680;26.324;2023-06-26T00:57:12;98041.66;;;24.54;94.41
9740;BME280;4909;42.680;26.324;2023-06-26T00:59:39;98022.94;;;23.95;96.21
9740;BME280;4909;42.680;26.324;2023-06-26T01:02:06;98026.34;;;24.05;97.21
9740;BME280;4909;42.680;26.324;2023-06-26T01:04:34;98022.31;;;24.17;96.89
9740;BME280;4909;42.680;26.324;2023-06-26T01:07:02;98020.94;;;24.21;96.05
9740;BME280;4909;42.680;26.324;2023-06-26T01:09:31;98018.06;;;24.22;95.86
9740;BME280;4909;42.680;26.324;2023-06-26T01:11:58;98027.75;;;24.33;95.09
9740;BME280;4909;42.680;26.324;2023-06-26T01:14:25;98018.91;;;24.31;94.86
9740;BME280;4909;42.680;26.324;2023-06-26T01:16:52;98007.00;;;24.16;95.18
9740;BME280;4909;42.680;26.324;2023-06-26T01:19:24;98020.78;;;24.31;95.20
9740;BME280;4909;42.680;26.324;2023-06-26T01:21:59;98020.56;;;24.08;96.88
9740;BME280;4909;42.680;26.324;2023-06-26T01:24:33;98008.56;;;24.10;95.83
9740;BME280;4909;42.680;26.324;2023-06-26T01:27:05;97977.88;;;23.86;96.19
9740;BME280;4909;42.680;26.324;2023-06-26T01:29:33;97992.97;;;24.04;95.89
9740;BME280;4909;42.680;26.324;2023-06-26T01:32:00;98005.22;;;24.24;94.54
9740;BME280;4909;42.680;26.324;2023-06-26T01:34:27;98017.41;;;24.29;92.92
9740;BME280;4909;42.680;26.324;2023-06-26T01:36:55;98007.28;;;23.72;95.21
9740;BME280;4909;42.680;26.324;2023-06-26T01:39:22;98001.22;;;23.70;97.08
9740;BME280;4909;42.680;26.324;2023-06-26T01:41:49;97988.16;;;23.66;97.12
9740;BME280;4909;42.680;26.324;2023-06-26T01:44:25;98004.47;;;24.06;95.78
9740;BME280;4909;42.680;26.324;2023-06-26T01:46:58;98000.78;;;24.15;93.72
9740;BME280;4909;42.680;26.324;2023-06-26T01:49:33;97998.53;;;23.95;95.38
9740;BME280;4909;42.680;26.324;2023-06-26T01:52:08;98002.59;;;23.99;95.69
9740;BME280;4909;42.680;26.324;2023-06-26T01:54:48;98000.41;;;24.02;95.77
9740;BME280;4909;42.680;26.324;2023-06-26T01:57:17;98001.09;;;23.96;94.61
9740;BME280;4909;42.680;26.324;2023-06-26T01:59:47;98006.66;;;24.03;94.76
9740;BME280;4909;42.680;26.324;2023-06-26T02:02:14;98000.91;;;23.98;94.78
9740;BME280;4909;42.680;26.324;2023-06-26T02:04:41;97996.69;;;24.03;94.51
9740;BME280;4909;42.680;26.324;2023-06-26T02:07:07;97995.53;;;24.22;93.93
9740;BME280;4909;42.680;26.324;2023-06-26T02:09:35;98002.63;;;24.15;93.58
9740;BME280;4909;42.680;26.324;2023-06-26T02:12:02;97999.09;;;24.31;93.24
9740;BME280;4909;42.680;26.324;2023-06-26T02:14:29;98007.56;;;24.44;92.61
9740;BME280;4909;42.680;26.324;2023-06-26T02:16:58;97989.41;;;24.36;91.98
9740;BME280;4909;42.680;26.324;2023-06-26T02:19:25;97978.56;;;24.04;93.61
9740;BME280;4909;42.680;26.324;2023-06-26T02:21:52;97996.84;;;24.02;94.23
9740;BME280;4909;42.680;26.324;2023-06-26T02:24:19;97979.88;;;23.83;95.93
9740;BME280;4909;42.680;26.324;2023-06-26T02:26:46;97998.34;;;23.88;96.35
9740;BME280;4909;42.680;26.324;2023-06-26T02:29:14;97995.13;;;23.93;96.14
9740;BME280;4909;42.680;26.324;2023-06-26T02:31:41;98003.81;;;24.04;95.28
9740;BME280;4909;42.680;26.324;2023-06-26T02:34:09;98001.75;;;23.98;92.13
9740;BME280;4909;42.680;26.324;2023-06-26T02:36:36;97994.63;;;23.81;90.35
9740;BME280;4909;42.680;26.324;2023-06-26T02:39:03;98009.53;;;24.01;90.33
9740;BME280;4909;42.680;26.324;2023-06-26T02:41:30;98004.66;;;24.21;91.83
9740;BME280;4909;42.680;26.324;2023-06-26T02:43:57;98014.19;;;24.25;89.70
9740;BME280;4909;42.680;26.324;2023-06-26T02:46:23;98017.22;;;24.22;89.89
9740;BME280;4909;42.680;26.324;2023-06-26T02:48:50;98013.19;;;24.34;89.89
9740;BME280;4909;42.680;26.324;2023-06-26T02:51:18;98013.31;;;24.41;89.16
9740;BME280;4909;42.680;26.324;2023-06-26T02:53:45;98012.66;;;24.47;88.44
9740;BME280;4909;42.680;26.324;2023-06-26T02:56:12;98010.47;;;24.34;88.92
9740;BME280;4909;42.680;26.324;2023-06-26T02:58:39;97990.09;;;24.22;90.87
9740;BME280;4909;42.680;26.324;2023-06-26T03:01:06;97972.59;;;23.92;93.23
9740;BME280;4909;42.680;26.324;2023-06-26T03:03:33;98003.81;;;24.04;94.42
9740;BME280;4909;42.680;26.324;2023-06-26T03:06:05;97999.91;;;23.91;95.97
9740;BME280;4909;42.680;26.324;2023-06-26T03:08:36;97993.44;;;23.75;100.00
9740;BME280;4909;42.680;26.324;2023-06-26T03:11:03;98002.56;;;23.74;99.46
9740;BME280;4909;42.680;26.324;2023-06-26T03:13:30;97999.44;;;23.53;100.00
9740;BME280;4909;42.680;26.324;2023-06-26T03:15:57;97983.69;;;23.15;100.00
9740;BME280;4909;42.680;26.324;2023-06-26T03:18:24;98003.69;;;23.14;100.00
9740;BME280;4909;42.680;26.324;2023-06-26T03:20:51;98019.03;;;23.05;100.00
9740;BME280;4909;42.680;26.324;2023-06-26T03:23:19;98011.69;;;22.89;100.00
9740;BME280;4909;42.680;26.324;2023-06-26T03:25:47;98012.81;;;22.79;100.00
9740;BME280;4909;42.680;26.324;2023-06-26T03:28:14;98015.72;;;22.68;100.00
9740;BME280;4909;42.680;26.324;2023-06-26T03:30:41;97996.53;;;22.53;100.00
9740;BME280;4909;42.680;26.324;2023-06-26T03:33:08;98010.84;;;22.28;100.00
9740;BME280;4909;42.680;26.324;2023-06-26T03:35:35;98014.69;;;22.43;100.00
9740;BME280;4909;42.680;26.324;2023-06-26T03:38:03;98014.13;;;22.57;100.00
9740;BME280;4909;42.680;26.324;2023-06-26T03:40:30;98026.28;;;22.53;100.00
9740;BME280;4909;42.680;26.324;2023-06-26T03:42:58;98033.13;;;22.65;100.00
9740;BME280;4909;42.680;26.324;2023-06-26T03:45:25;98034.25;;;22.80;100.00
9740;BME280;4909;42.680;26.324;2023-06-26T03:47:52;98026.09;;;22.72;100.00
9740;BME280;4909;42.680;26.324;2023-06-26T03:50:19;98035.66;;;22.84;100.00
9740;BME280;4909;42.680;26.324;2023-06-26T03:52:46;98019.44;;;22.84;100.00
9740;BME280;4909;42.680;26.324;2023-06-26T03:55:12;98021.97;;;22.86;100.00
9740;BME280;4909;42.680;26.324;2023-06-26T03:57:39;98025.09;;;22.73;100.00
9740;BME280;4909;42.680;26.324;2023-06-26T04:00:09;98029.06;;;22.87;100.00
9740;BME280;4909;42.680;26.324;2023-06-26T04:02:38;98033.22;;;22.73;100.00
9740;BME280;4909;42.680;26.324;2023-06-26T04:05:05;98035.38;;;22.52;100.00
9740;BME280;4909;42.680;26.324;2023-06-26T04:07:32;98038.03;;;22.44;100.00
9740;BME280;4909;42.680;26.324;2023-06-26T04:10:00;98041.53;;;22.36;100.00
9740;BME280;4909;42.680;26.324;2023-06-26T04:12:27;97986.47;;;22.20;100.00
9740;BME280;4909;42.680;26.324;2023-06-26T04:14:53;98040.03;;;22.60;100.00
9740;BME280;4909;42.680;26.324;2023-06-26T04:17:22;98035.59;;;22.76;100.00
9740;BME280;4909;42.680;26.324;2023-06-26T04:19:48;98036.66;;;22.83;100.00
9740;BME280;4909;42.680;26.324;2023-06-26T04:22:15;98024.56;;;22.95;100.00
9740;BME280;4909;42.680;26.324;2023-06-26T04:24:42;98021.91;;;22.78;100.00
9740;BME280;4909;42.680;26.324;2023-06-26T04:29:36;98012.63;;;22.80;100.00
9740;BME280;4909;42.680;26.324;2023-06-26T04:32:03;98024.50;;;22.87;100.00
9740;BME280;4909;42.680;26.324;2023-06-26T04:34:31;98027.09;;;22.71;100.00
9740;BME280;4909;42.680;26.324;2023-06-26T04:36:59;98030.22;;;22.59;100.00
9740;BME280;4909;42.680;26.324;2023-06-26T04:39:26;98033.28;;;22.64;100.00
9740;BME280;4909;42.680;26.324;2023-06-26T04:41:52;98038.28;;;22.33;100.00
9740;BME280;4909;42.680;26.324;2023-06-26T04:44:19;98045.22;;;22.53;100.00
9740;BME280;4909;42.680;26.324;2023-06-26T04:46:46;98033.72;;;22.51;100.00
9740;BME280;4909;42.680;26.324;2023-06-26T04:49:13;98040.38;;;22.39;100.00
9740;BME280;4909;42.680;26.324;2023-06-26T04:51:44;98027.22;;;22.44;100.00
9740;BME280;4909;42.680;26.324;2023-06-26T04:54:11;98034.44;;;22.35;100.00
9740;BME280;4909;42.680;26.324;2023-06-26T04:56:38;98008.81;;;22.22;100.00
9740;BME280;4909;42.680;26.324;2023-06-26T04:59:05;98031.41;;;22.38;100.00
9740;BME280;4909;42.680;26.324;2023-06-26T05:01:32;98025.00;;;22.04;100.00
9740;BME280;4909;42.680;26.324;2023-06-26T05:03:59;98035.94;;;21.85;100.00
9740;BME280;4909;42.680;26.324;2023-06-26T05:06:26;98037.00;;;21.74;100.00
9740;BME280;4909;42.680;26.324;2023-06-26T05:08:54;98030.19;;;21.97;100.00
9740;BME280;4909;42.680;26.324;2023-06-26T05:11:21;98039.88;;;21.73;100.00
9740;BME280;4909;42.680;26.324;2023-06-26T05:13:48;98033.31;;;21.75;100.00
9740;BME280;4909;42.680;26.324;2023-06-26T05:16:15;98015.31;;;21.66;100.00
9740;BME280;4909;42.680;26.324;2023-06-26T05:18:42;98041.19;;;21.68;100.00
9740;BME280;4909;42.680;26.324;2023-06-26T05:21:09;98044.91;;;21.85;100.00
9740;BME280;4909;42.680;26.324;2023-06-26T05:23:36;98047.53;;;21.50;100.00
9740;BME280;4909;42.680;26.324;2023-06-26T05:26:04;98052.72;;;21.61;100.00
9740;BME280;4909;42.680;26.324;2023-06-26T05:28:32;98041.25;;;21.59;100.00
9740;BME280;4909;42.680;26.324;2023-06-26T05:31:00;98055.50;;;21.69;100.00
9740;BME280;4909;42.680;26.324;2023-06-26T05:33:27;98064.72;;;21.76;100.00
9740;BME280;4909;42.680;26.324;2023-06-26T05:35:55;98054.84;;;21.67;100.00
9740;BME280;4909;42.680;26.324;2023-06-26T05:38:22;98073.97;;;21.74;100.00
9740;BME280;4909;42.680;26.324;2023-06-26T05:40:50;98057.50;;;21.49;100.00
9740;BME280;4909;42.680;26.324;2023-06-26T05:43:18;98080.06;;;21.76;100.00
9740;BME280;4909;42.680;26.324;2023-06-26T05:45:47;98088.25;;;21.66;100.00
9740;BME280;4909;42.680;26.324;2023-06-26T05:48:14;98083.78;;;21.75;100.00
9740;BME280;4909;42.680;26.324;2023-06-26T05:50:42;98093.25;;;21.61;100.00
9740;BME280;4909;42.680;26.324;2023-06-26T05:53:09;98094.06;;;21.44;100.00
9740;BME280;4909;42.680;26.324;2023-06-26T05:55:37;98076.00;;;21.44;100.00
9740;BME280;4909;42.680;26.324;2023-06-26T05:58:05;98099.34;;;21.63;100.00
9740;BME280;4909;42.680;26.324;2023-06-26T06:00:34;98101.53;;;22.04;100.00
9740;BME280;4909;42.680;26.324;2023-06-26T06:03:01;98102.56;;;22.21;100.00
9740;BME280;4909;42.680;26.324;2023-06-26T06:05:27;98112.50;;;22.38;100.00
9740;BME280;4909;42.680;26.324;2023-06-26T06:07:54;98118.47;;;22.60;100.00
9740;BME280;4909;42.680;26.324;2023-06-26T06:10:21;98120.84;;;22.80;100.00
9740;BME280;4909;42.680;26.324;2023-06-26T06:12:48;98122.25;;;22.84;100.00
9740;BME280;4909;42.680;26.324;2023-06-26T06:15:15;98113.13;;;22.50;100.00
9740;BME280;4909;42.680;26.324;2023-06-26T06:17:43;98118.84;;;22.29;100.00
9740;BME280;4909;42.680;26.324;2023-06-26T06:20:10;98123.09;;;22.14;100.00
9740;BME280;4909;42.680;26.324;2023-06-26T06:22:37;98104.69;;;22.00;100.00
9740;BME280;4909;42.680;26.324;2023-06-26T06:25:04;98119.06;;;22.18;100.00
9740;BME280;4909;42.680;26.324;2023-06-26T06:27:31;98110.13;;;22.35;100.00
9740;BME280;4909;42.680;26.324;2023-06-26T06:29:58;98126.97;;;22.29;100.00
9740;BME280;4909;42.680;26.324;2023-06-26T06:32:25;98121.38;;;22.13;100.00
9740;BME280;4909;42.680;26.324;2023-06-26T06:34:53;98113.78;;;21.99;100.00
9740;BME280;4909;42.680;26.324;2023-06-26T06:37:20;98121.25;;;21.87;100.00
9740;BME280;4909;42.680;26.324;2023-06-26T06:39:47;98119.75;;;21.75;100.00
9740;BME280;4909;42.680;26.324;2023-06-26T06:42:13;98120.00;;;21.82;100.00
9740;BME280;4909;42.680;26.324;2023-06-26T06:44:40;98125.13;;;21.75;100.00
9740;BME280;4909;42.680;26.324;2023-06-26T06:47:07;98128.59;;;21.67;100.00
9740;BME280;4909;42.680;26.324;2023-06-26T06:49:34;98134.50;;;21.53;100.00
9740;BME280;4909;42.680;26.324;2023-06-26T06:52:02;98117.38;;;21.35;100.00
9740;BME280;4909;42.680;26.324;2023-06-26T06:54:29;98133.72;;;21.34;100.00
9740;BME280;4909;42.680;26.324;2023-06-26T06:56:55;98121.56;;;21.20;100.00
9740;BME280;4909;42.680;26.324;2023-06-26T06:59:22;98124.94;;;21.12;100.00
9740;BME280;4909;42.680;26.324;2023-06-26T07:01:49;98139.41;;;21.31;100.00
9740;BME280;4909;42.680;26.324;2023-06-26T07:04:16;98123.66;;;21.26;100.00
9740;BME280;4909;42.680;26.324;2023-06-26T07:06:43;98150.09;;;21.22;100.00
9740;BME280;4909;42.680;26.324;2023-06-26T07:09:11;98151.81;;;21.23;100.00
9740;BME280;4909;42.680;26.324;2023-06-26T07:11:38;98138.41;;;21.32;100.00
9740;BME280;4909;42.680;26.324;2023-06-26T07:14:04;98144.81;;;21.31;100.00
9740;BME280;4909;42.680;26.324;2023-06-26T07:16:31;98154.63;;;21.12;100.00
9740;BME280;4909;42.680;26.324;2023-06-26T07:18:58;98153.34;;;21.26;100.00
9740;BME280;4909;42.680;26.324;2023-06-26T07:21:25;98153.63;;;21.33;100.00
9740;BME280;4909;42.680;26.324;2023-06-26T07:23:52;98150.41;;;21.19;100.00
9740;BME280;4909;42.680;26.324;2023-06-26T07:26:20;98150.84;;;21.15;100.00
9740;BME280;4909;42.680;26.324;2023-06-26T07:28:47;98159.31;;;21.30;100.00
9740;BME280;4909;42.680;26.324;2023-06-26T07:31:15;98159.91;;;21.23;100.00
9740;BME280;4909;42.680;26.324;2023-06-26T07:33:42;98153.09;;;21.19;100.00
9740;BME280;4909;42.680;26.324;2023-06-26T07:36:09;98155.34;;;21.24;100.00
9740;BME280;4909;42.680;26.324;2023-06-26T07:38:36;98157.41;;;21.49;100.00
9740;BME280;4909;42.680;26.324;2023-06-26T07:41:03;98163.69;;;21.31;100.00
9740;BME280;4909;42.680;26.324;2023-06-26T07:43:31;98161.47;;;21.16;100.00
9740;BME280;4909;42.680;26.324;2023-06-26T07:45:57;98152.91;;;21.11;100.00
9740;BME280;4909;42.680;26.324;2023-06-26T07:48:25;98151.91;;;21.32;100.00
9740;BME280;4909;42.680;26.324;2023-06-26T07:50:52;98138.34;;;21.51;100.00
9740;BME280;4909;42.680;26.324;2023-06-26T07:53:19;98159.63;;;21.63;100.00
9740;BME280;4909;42.680;26.324;2023-06-26T07:55:45;98131.94;;;21.52;100.00
9740;BME280;4909;42.680;26.324;2023-06-26T07:58:13;98164.03;;;21.55;100.00
9740;BME280;4909;42.680;26.324;2023-06-26T08:00:41;98166.06;;;21.53;100.00
9740;BME280;4909;42.680;26.324;2023-06-26T08:03:08;98165.88;;;21.91;100.00
9740;BME280;4909;42.680;26.324;2023-06-26T08:05:35;98164.16;;;21.90;100.00
9740;BME280;4909;42.680;26.324;2023-06-26T08:08:01;98159.59;;;22.00;100.00
9740;BME280;4909;42.680;26.324;2023-06-26T08:10:28;98167.13;;;22.24;100.00
9740;BME280;4909;42.680;26.324;2023-06-26T08:12:55;98155.38;;;22.33;100.00
9740;BME280;4909;42.680;26.324;2023-06-26T08:15:22;98163.88;;;22.38;100.00
9740;BME280;4909;42.680;26.324;2023-06-26T08:17:50;98155.84;;;22.29;100.00
9740;BME280;4909;42.680;26.324;2023-06-26T08:20:17;98155.38;;;22.16;100.00
9740;BME280;4909;42.680;26.324;2023-06-26T08:22:44;98138.97;;;21.99;100.00
9740;BME280;4909;42.680;26.324;2023-06-26T08:25:13;98160.66;;;22.07;100.00
9740;BME280;4909;42.680;26.324;2023-06-26T08:27:40;98156.91;;;22.00;100.00
9740;BME280;4909;42.680;26.324;2023-06-26T08:30:07;98164.44;;;21.60;100.00
9740;BME280;4909;42.680;26.324;2023-06-26T08:32:34;98178.75;;;21.70;100.00
9740;BME280;4909;42.680;26.324;2023-06-26T08:35:02;98186.19;;;21.68;100.00
9740;BME280;4909;42.680;26.324;2023-06-26T08:37:29;98178.94;;;21.68;100.00
9740;BME280;4909;42.680;26.324;2023-06-26T08:39:57;98185.31;;;21.67;100.00
9740;BME280;4909;42.680;26.324;2023-06-26T08:42:24;98191.59;;;21.68;100.00
9740;BME280;4909;42.680;26.324;2023-06-26T08:44:51;98185.81;;;21.81;100.00
9740;BME280;4909;42.680;26.324;2023-06-26T08:47:18;98184.19;;;22.07;100.00
9740;BME280;4909;42.680;26.324;2023-06-26T08:49:47;98153.59;;;22.06;100.00
9740;BME280;4909;42.680;26.324;2023-06-26T08:52:23;98192.25;;;22.52;100.00
9740;BME280;4909;42.680;26.324;2023-06-26T08:54:54;98188.69;;;22.51;100.00
9740;BME280;4909;42.680;26.324;2023-06-26T08:57:22;98192.19;;;22.44;100.00
9740;BME280;4909;42.680;26.324;2023-06-26T08:59:51;98189.94;;;22.39;100.00
9740;BME280;4909;42.680;26.324;2023-06-26T09:02:18;98187.28;;;22.30;100.00
9740;BME280;4909;42.680;26.324;2023-06-26T09:04:47;98192.38;;;22.33;100.00
9740;BME280;4909;42.680;26.324;2023-06-26T09:07:14;98182.28;;;22.17;100.00
9740;BME280;4909;42.680;26.324;2023-06-26T09:09:42;98181.25;;;22.18;100.00
9740;BME280;4909;42.680;26.324;2023-06-26T09:12:09;98191.31;;;22.26;100.00
9740;BME280;4909;42.680;26.324;2023-06-26T09:14:37;98158.59;;;22.01;100.00
9740;BME280;4909;42.680;26.324;2023-06-26T09:17:04;98193.16;;;22.25;100.00
9740;BME280;4909;42.680;26.324;2023-06-26T09:19:30;98188.59;;;22.26;100.00
9740;BME280;4909;42.680;26.324;2023-06-26T09:21:57;98193.72;;;22.46;100.00
9740;BME280;4909;42.680;26.324;2023-06-26T09:24:25;98196.03;;;22.41;100.00
9740;BME280;4909;42.680;26.324;2023-06-26T09:26:53;98193.78;;;22.37;100.00
9740;BME280;4909;42.680;26.324;2023-06-26T09:29:20;98192.44;;;22.23;100.00
9740;BME280;4909;42.680;26.324;2023-06-26T09:31:47;98197.91;;;22.14;100.00
9740;BME280;4909;42.680;26.324;2023-06-26T09:34:14;98204.63;;;22.09;100.00
9740;BME280;4909;42.680;26.324;2023-06-26T09:36:41;98207.19;;;22.11;100.00
9740;BME280;4909;42.680;26.324;2023-06-26T09:39:12;98212.63;;;22.29;100.00
9740;BME280;4909;42.680;26.324;2023-06-26T09:41:41;98213.41;;;22.39;100.00
9740;BME280;4909;42.680;26.324;2023-06-26T09:44:10;98211.75;;;22.56;100.00
9740;BME280;4909;42.680;26.324;2023-06-26T09:46:37;98205.63;;;22.53;100.00
9740;BME280;4909;42.680;26.324;2023-06-26T09:49:06;98198.78;;;22.32;100.00
9740;BME280;4909;42.680;26.324;2023-06-26T09:51:35;98224.78;;;22.42;100.00
9740;BME280;4909;42.680;26.324;2023-06-26T09:54:02;98219.75;;;22.30;100.00
9740;BME280;4909;42.680;26.324;2023-06-26T09:56:30;98221.53;;;22.39;100.00
9740;BME280;4909;42.680;26.324;2023-06-26T09:58:59;98216.31;;;22.28;100.00
9740;BME280;4909;42.680;26.324;2023-06-26T10:01:28;98233.59;;;22.62;100.00
9740;BME280;4909;42.680;26.324;2023-06-26T10:03:55;98198.97;;;22.66;100.00
9740;BME280;4909;42.680;26.324;2023-06-26T10:06:27;98205.03;;;22.60;100.00
9740;BME280;4909;42.680;26.324;2023-06-26T10:08:56;98230.44;;;22.67;100.00
9740;BME280;4909;42.680;26.324;2023-06-26T10:11:25;98228.03;;;22.46;100.00
9740;BME280;4909;42.680;26.324;2023-06-26T10:13:57;98219.28;;;22.34;100.00
9740;BME280;4909;42.680;26.324;2023-06-26T10:16:28;98221.59;;;22.29;100.00
9740;BME280;4909;42.680;26.324;2023-06-26T10:18:59;98224.63;;;22.44;100.00
9740;BME280;4909;42.680;26.324;2023-06-26T10:21:29;98227.50;;;22.60;100.00
9740;BME280;4909;42.680;26.324;2023-06-26T10:23:58;98222.25;;;22.41;100.00
9740;BME280;4909;42.680;26.324;2023-06-26T10:26:26;98202.63;;;22.12;100.00
9740;BME280;4909;42.680;26.324;2023-06-26T10:28:56;98226.28;;;22.27;100.00
9740;BME280;4909;42.680;26.324;2023-06-26T10:31:26;98202.81;;;22.28;100.00
9740;BME280;4909;42.680;26.324;2023-06-26T10:33:56;98225.56;;;22.52;100.00
9740;BME280;4909;42.680;26.324;2023-06-26T10:36:28;98229.38;;;22.60;100.00
9740;BME280;4909;42.680;26.324;2023-06-26T10:38:57;98222.63;;;22.64;100.00
9740;BME280;4909;42.680;26.324;2023-06-26T10:41:25;98228.50;;;22.59;100.00
9740;BME280;4909;42.680;26.324;2023-06-26T10:44:06;98229.50;;;22.58;100.00
9740;BME280;4909;42.680;26.324;2023-06-26T10:46:33;98215.75;;;22.51;100.00
9740;BME280;4909;42.680;26.324;2023-06-26T10:49:02;98214.16;;;22.76;100.00
9740;BME280;4909;42.680;26.324;2023-06-26T10:51:29;98216.88;;;22.94;100.00
9740;BME280;4909;42.680;26.324;2023-06-26T10:53:56;98211.75;;;23.09;100.00
9740;BME280;4909;42.680;26.324;2023-06-26T10:56:50;98218.47;;;23.05;100.00
9740;BME280;4909;42.680;26.324;2023-06-26T10:59:23;98199.00;;;23.01;100.00
9740;BME280;4909;42.680;26.324;2023-06-26T11:01:54;98203.97;;;22.88;100.00
9740;BME280;4909;42.680;26.324;2023-06-26T11:04:37;98193.41;;;22.67;100.00
9740;BME280;4909;42.680;26.324;2023-06-26T11:07:19;98195.06;;;22.95;100.00
9740;BME280;4909;42.680;26.324;2023-06-26T11:09:56;98195.31;;;23.28;100.00
9740;BME280;4909;42.680;26.324;2023-06-26T11:12:42;98194.09;;;23.22;100.00
9740;BME280;4909;42.680;26.324;2023-06-26T11:15:09;98194.84;;;23.32;100.00
9740;BME280;4909;42.680;26.324;2023-06-26T11:17:37;98184.16;;;23.31;100.00
9740;BME280;4909;42.680;26.324;2023-06-26T11:20:07;98191.75;;;23.27;100.00
9740;BME280;4909;42.680;26.324;2023-06-26T11:22:35;98190.38;;;23.23;100.00
9740;BME280;4909;42.680;26.324;2023-06-26T11:25:03;98166.31;;;23.20;100.00
9740;BME280;4909;42.680;26.324;2023-06-26T11:27:31;98166.72;;;23.33;100.00
9740;BME280;4909;42.680;26.324;2023-06-26T11:29:58;98164.00;;;23.51;100.00
9740;BME280;4909;42.680;26.324;2023-06-26T11:32:26;98171.38;;;23.67;100.00
9740;BME280;4909;42.680;26.324;2023-06-26T11:34:54;98168.72;;;23.75;100.00
9740;BME280;4909;42.680;26.324;2023-06-26T11:37:22;98160.31;;;23.94;100.00
9740;BME280;4909;42.680;26.324;2023-06-26T11:39:49;98165.25;;;23.99;100.00
9740;BME280;4909;42.680;26.324;2023-06-26T11:42:16;98160.91;;;24.14;100.00
9740;BME280;4909;42.680;26.324;2023-06-26T11:44:43;98159.59;;;24.18;100.00
9740;BME280;4909;42.680;26.324;2023-06-26T11:47:13;98127.66;;;24.04;100.00
9740;BME280;4909;42.680;26.324;2023-06-26T11:49:42;98179.94;;;24.22;97.36
9740;BME280;4909;42.680;26.324;2023-06-26T11:52:09;98175.22;;;24.40;100.00
9740;BME280;4909;42.680;26.324;2023-06-26T11:54:37;98174.22;;;24.41;98.22
9740;BME280;4909;42.680;26.324;2023-06-26T11:57:04;98158.63;;;24.43;100.00
9740;BME280;4909;42.680;26.324;2023-06-26T11:59:33;98176.81;;;24.67;100.00
9740;BME280;4909;42.680;26.324;2023-06-26T12:02:04;98171.72;;;24.80;100.00
9740;BME280;4909;42.680;26.324;2023-06-26T12:04:32;98178.16;;;24.79;99.86
9740;BME280;4909;42.680;26.324;2023-06-26T12:07:01;98158.38;;;24.87;99.76
9740;BME280;4909;42.680;26.324;2023-06-26T12:09:29;98162.28;;;24.92;100.00
9740;BME280;4909;42.680;26.324;2023-06-26T12:12:01;98148.69;;;24.92;100.00
9740;BME280;4909;42.680;26.324;2023-06-26T12:14:28;98154.78;;;24.94;99.80
9740;BME280;4909;42.680;26.324;2023-06-26T12:16:55;98159.56;;;25.00;98.94
9740;BME280;4909;42.680;26.324;2023-06-26T12:19:25;98165.84;;;25.01;95.10
9740;BME280;4909;42.680;26.324;2023-06-26T12:21:52;98163.13;;;24.93;97.25
9740;BME280;4909;42.680;26.324;2023-06-26T12:24:23;98139.66;;;24.84;97.18
9740;BME280;4909;42.680;26.324;2023-06-26T12:26:52;98133.56;;;24.74;87.79
9740;BME280;4909;42.680;26.324;2023-06-26T12:29:32;98159.91;;;24.97;88.50
9740;BME280;4909;42.680;26.324;2023-06-26T12:31:59;98158.88;;;24.90;92.83
9740;BME280;4909;42.680;26.324;2023-06-26T12:34:28;98168.38;;;25.02;87.83
9740;BME280;4909;42.680;26.324;2023-06-26T12:37:00;98161.91;;;25.03;86.16
9740;BME280;4909;42.680;26.324;2023-06-26T12:39:28;98170.22;;;25.10;89.47
9740;BME280;4909;42.680;26.324;2023-06-26T12:41:56;98170.59;;;25.07;91.40
9740;BME280;4909;42.680;26.324;2023-06-26T12:44:27;98171.78;;;24.96;91.59
9740;BME280;4909;42.680;26.324;2023-06-26T12:46:55;98178.38;;;24.94;88.71
9740;BME280;4909;42.680;26.324;2023-06-26T12:49:32;98166.84;;;25.00;91.60
9740;BME280;4909;42.680;26.324;2023-06-26T12:52:01;98154.78;;;24.94;89.68
9740;BME280;4909;42.680;26.324;2023-06-26T12:54:28;98167.72;;;24.92;87.11
9740;BME280;4909;42.680;26.324;2023-06-26T12:56:55;98163.63;;;24.96;88.98
9740;BME280;4909;42.680;26.324;2023-06-26T12:59:22;98181.78;;;25.04;88.19
9740;BME280;4909;42.680;26.324;2023-06-26T13:01:50;98178.72;;;24.91;88.88
9740;BME280;4909;42.680;26.324;2023-06-26T13:04:17;98180.44;;;24.92;87.58
9740;BME280;4909;42.680;26.324;2023-06-26T13:06:44;98172.59;;;24.89;89.35
9740;BME280;4909;42.680;26.324;2023-06-26T13:09:11;98171.22;;;24.85;89.79